sensor_id;sensor_type;location;lat;lon;timestamp;P1;durP1;ratioP1;P2;durP2;ratioP2
44774;SDS011;31340;51.402;0.016;2023-08-07T00:02:24;3.83;;;2.13;;
44774;SDS011;31340;51.402;0.016;2023-08-07T00:04:52;5.38;;;2.15;;
44774;SDS011;31340;51.402;0.016;2023-08-07T00:07:20;3.63;;;2.00;;
44774;SDS011;31340;51.402;0.016;2023-08-07T00:09:48;3.30;;;2.08;;
44774;SDS011;31340;51.402;0.016;2023-08-07T00:12:16;2.20;;;1.75;;
44774;SDS011;31340;51.402;0.016;2023-08-07T00:14:44;4.47;;;2.42;;
44774;SDS011;31340;51.402;0.016;2023-08-07T00:17:15;3.92;;;2.05;;
44774;SDS011;31340;51.402;0.016;2023-08-07T00:19:44;5.07;;;2.00;;
44774;SDS011;31340;51.402;0.016;2023-08-07T00:22:11;5.72;;;1.90;;
44774;SDS011;31340;51.402;0.016;2023-08-07T00:24:39;3.30;;;1.90;;
44774;SDS011;31340;51.402;0.016;2023-08-07T00:27:07;3.97;;;1.98;;
44774;SDS011;31340;51.402;0.016;2023-08-07T00:29:37;2.67;;;1.73;;
44774;SDS011;31340;51.402;0.016;2023-08-07T00:32:05;5.53;;;2.20;;
44774;SDS011;31340;51.402;0.016;2023-08-07T00:34:33;2.47;;;1.52;;
44774;SDS011;31340;51.402;0.016;2023-08-07T00:37:01;4.78;;;2.47;;
44774;SDS011;31340;51.402;0.016;2023-08-07T00:39:29;4.07;;;2.20;;
44774;SDS011;31340;51.402;0.016;2023-08-07T00:41:56;3.40;;;1.85;;
44774;SDS011;31340;51.402;0.016;2023-08-07T00:44:24;2.50;;;1.70;;
44774;SDS011;31340;51.402;0.016;2023-08-07T00:46:52;3.10;;;2.00;;
44774;SDS011;31340;51.402;0.016;2023-08-07T00:49:21;2.85;;;1.90;;
44774;SDS011;31340;51.402;0.016;2023-08-07T00:51:49;3.83;;;1.98;;
44774;SDS011;31340;51.402;0.016;2023-08-07T00:54:18;4.05;;;1.92;;
44774;SDS011;31340;51.402;0.016;2023-08-07T00:56:46;3.88;;;2.00;;
44774;SDS011;31340;51.402;0.016;2023-08-07T00:59:14;2.60;;;1.65;;
44774;SDS011;31340;51.402;0.016;2023-08-07T01:01:42;4.93;;;2.20;;
44774;SDS011;31340;51.402;0.016;2023-08-07T01:04:10;3.10;;;1.98;;
44774;SDS011;31340;51.402;0.016;2023-08-07T01:06:38;4.18;;;1.83;;
44774;SDS011;31340;51.402;0.016;2023-08-07T01:09:06;4.30;;;2.17;;
44774;SDS011;31340;51.402;0.016;2023-08-07T01:11:55;4.10;;;2.10;;
44774;SDS011;31340;51.402;0.016;2023-08-07T01:14:44;5.03;;;2.40;;
44774;SDS011;31340;51.402;0.016;2023-08-07T01:17:19;4.65;;;2.17;;
44774;SDS011;31340;51.402;0.016;2023-08-07T01:19:50;4.75;;;2.30;;
44774;SDS011;31340;51.402;0.016;2023-08-07T01:22:19;6.60;;;2.53;;
44774;SDS011;31340;51.402;0.016;2023-08-07T01:24:49;5.03;;;2.45;;
44774;SDS011;31340;51.402;0.016;2023-08-07T01:32:36;2.88;;;1.77;;
44774;SDS011;31340;51.402;0.016;2023-08-07T01:35:06;5.15;;;2.42;;
44774;SDS011;31340;51.402;0.016;2023-08-07T01:37:37;4.25;;;2.05;;
44774;SDS011;31340;51.402;0.016;2023-08-07T01:40:08;3.58;;;1.90;;
44774;SDS011;31340;51.402;0.016;2023-08-07T01:42:37;4.53;;;2.20;;
44774;SDS011;31340;51.402;0.016;2023-08-07T01:45:06;2.97;;;1.83;;
44774;SDS011;31340;51.402;0.016;2023-08-07T01:47:34;3.08;;;1.92;;
44774;SDS011;31340;51.402;0.016;2023-08-07T01:50:02;3.67;;;1.67;;
44774;SDS011;31340;51.402;0.016;2023-08-07T01:52:30;3.47;;;2.00;;
44774;SDS011;31340;51.402;0.016;2023-08-07T01:54:58;2.90;;;1.80;;
44774;SDS011;31340;51.402;0.016;2023-08-07T01:57:26;4.22;;;1.85;;
44774;SDS011;31340;51.402;0.016;2023-08-07T01:59:54;2.70;;;1.70;;
44774;SDS011;31340;51.402;0.016;2023-08-07T02:02:22;3.38;;;1.40;;
44774;SDS011;31340;51.402;0.016;2023-08-07T02:04:51;2.97;;;1.77;;
44774;SDS011;31340;51.402;0.016;2023-08-07T02:07:19;3.47;;;1.70;;
44774;SDS011;31340;51.402;0.016;2023-08-07T02:09:47;2.53;;;1.67;;
44774;SDS011;31340;51.402;0.016;2023-08-07T02:12:15;3.28;;;1.60;;
44774;SDS011;31340;51.402;0.016;2023-08-07T02:14:43;4.50;;;1.85;;
44774;SDS011;31340;51.402;0.016;2023-08-07T02:17:10;3.67;;;1.95;;
44774;SDS011;31340;51.402;0.016;2023-08-07T02:19:38;3.50;;;2.03;;
44774;SDS011;31340;51.402;0.016;2023-08-07T02:22:06;3.55;;;1.98;;
44774;SDS011;31340;51.402;0.016;2023-08-07T02:24:34;2.33;;;1.83;;
44774;SDS011;31340;51.402;0.016;2023-08-07T02:27:02;4.90;;;1.58;;
44774;SDS011;31340;51.402;0.016;2023-08-07T02:29:30;4.43;;;1.52;;
44774;SDS011;31340;51.402;0.016;2023-08-07T02:32:04;3.67;;;1.70;;
44774;SDS011;31340;51.402;0.016;2023-08-07T02:34:32;4.50;;;1.58;;
44774;SDS011;31340;51.402;0.016;2023-08-07T02:37:00;2.35;;;1.48;;
44774;SDS011;31340;51.402;0.016;2023-08-07T02:39:27;3.22;;;1.75;;
44774;SDS011;31340;51.402;0.016;2023-08-07T02:41:55;2.03;;;1.40;;
44774;SDS011;31340;51.402;0.016;2023-08-07T02:44:22;2.85;;;1.75;;
44774;SDS011;31340;51.402;0.016;2023-08-07T02:46:50;2.67;;;1.67;;
44774;SDS011;31340;51.402;0.016;2023-08-07T02:49:18;2.22;;;1.58;;
44774;SDS011;31340;51.402;0.016;2023-08-07T02:51:46;2.20;;;1.70;;
44774;SDS011;31340;51.402;0.016;2023-08-07T02:54:14;2.22;;;1.45;;
44774;SDS011;31340;51.402;0.016;2023-08-07T02:56:41;2.58;;;1.50;;
44774;SDS011;31340;51.402;0.016;2023-08-07T02:59:09;5.32;;;1.92;;
44774;SDS011;31340;51.402;0.016;2023-08-07T03:01:37;3.53;;;1.60;;
44774;SDS011;31340;51.402;0.016;2023-08-07T03:04:04;2.08;;;1.40;;
44774;SDS011;31340;51.402;0.016;2023-08-07T03:06:32;4.57;;;1.67;;
44774;SDS011;31340;51.402;0.016;2023-08-07T03:09:00;4.15;;;1.67;;
44774;SDS011;31340;51.402;0.016;2023-08-07T03:11:28;4.13;;;2.28;;
44774;SDS011;31340;51.402;0.016;2023-08-07T03:13:55;4.70;;;2.08;;
44774;SDS011;31340;51.402;0.016;2023-08-07T03:16:23;5.50;;;1.67;;
44774;SDS011;31340;51.402;0.016;2023-08-07T03:18:51;2.95;;;1.80;;
44774;SDS011;31340;51.402;0.016;2023-08-07T03:21:19;2.65;;;1.67;;
44774;SDS011;31340;51.402;0.016;2023-08-07T03:23:46;5.20;;;1.80;;
44774;SDS011;31340;51.402;0.016;2023-08-07T03:26:14;3.40;;;1.88;;
44774;SDS011;31340;51.402;0.016;2023-08-07T03:28:47;3.40;;;1.70;;
44774;SDS011;31340;51.402;0.016;2023-08-07T03:31:16;4.47;;;1.85;;
44774;SDS011;31340;51.402;0.016;2023-08-07T03:33:45;3.72;;;1.85;;
44774;SDS011;31340;51.402;0.016;2023-08-07T03:36:14;3.35;;;1.90;;
44774;SDS011;31340;51.402;0.016;2023-08-07T03:38:41;5.50;;;1.65;;
44774;SDS011;31340;51.402;0.016;2023-08-07T03:41:10;6.75;;;1.80;;
44774;SDS011;31340;51.402;0.016;2023-08-07T03:43:40;5.28;;;2.15;;
44774;SDS011;31340;51.402;0.016;2023-08-07T03:46:08;3.00;;;1.73;;
44774;SDS011;31340;51.402;0.016;2023-08-07T03:48:35;2.22;;;1.75;;
44774;SDS011;31340;51.402;0.016;2023-08-07T03:51:04;3.42;;;1.92;;
44774;SDS011;31340;51.402;0.016;2023-08-07T03:53:37;5.72;;;2.17;;
44774;SDS011;31340;51.402;0.016;2023-08-07T03:56:05;6.88;;;2.00;;
44774;SDS011;31340;51.402;0.016;2023-08-07T03:58:34;3.53;;;1.90;;
44774;SDS011;31340;51.402;0.016;2023-08-07T04:01:03;4.05;;;2.17;;
44774;SDS011;31340;51.402;0.016;2023-08-07T04:03:31;4.43;;;2.05;;
44774;SDS011;31340;51.402;0.016;2023-08-07T04:06:00;3.42;;;2.15;;
44774;SDS011;31340;51.402;0.016;2023-08-07T04:08:29;5.78;;;2.25;;
44774;SDS011;31340;51.402;0.016;2023-08-07T04:11:04;8.02;;;2.35;;
44774;SDS011;31340;51.402;0.016;2023-08-07T04:13:34;2.78;;;1.80;;
44774;SDS011;31340;51.402;0.016;2023-08-07T04:16:02;4.00;;;1.95;;
44774;SDS011;31340;51.402;0.016;2023-08-07T04:18:32;4.15;;;2.08;;
44774;SDS011;31340;51.402;0.016;2023-08-07T04:21:02;3.80;;;2.17;;
44774;SDS011;31340;51.402;0.016;2023-08-07T04:23:32;4.55;;;2.00;;
44774;SDS011;31340;51.402;0.016;2023-08-07T04:25:59;4.35;;;2.40;;
44774;SDS011;31340;51.402;0.016;2023-08-07T04:28:28;4.63;;;2.05;;
44774;SDS011;31340;51.402;0.016;2023-08-07T04:30:56;3.03;;;1.73;;
44774;SDS011;31340;51.402;0.016;2023-08-07T04:33:24;3.80;;;2.10;;
44774;SDS011;31340;51.402;0.016;2023-08-07T04:35:52;2.42;;;1.70;;
44774;SDS011;31340;51.402;0.016;2023-08-07T04:38:19;4.20;;;2.00;;
44774;SDS011;31340;51.402;0.016;2023-08-07T04:40:47;5.18;;;2.40;;
44774;SDS011;31340;51.402;0.016;2023-08-07T04:43:17;3.80;;;2.30;;
44774;SDS011;31340;51.402;0.016;2023-08-07T04:45:47;3.70;;;1.90;;
44774;SDS011;31340;51.402;0.016;2023-08-07T04:48:15;4.45;;;2.13;;
44774;SDS011;31340;51.402;0.016;2023-08-07T04:50:43;7.65;;;2.53;;
44774;SDS011;31340;51.402;0.016;2023-08-07T04:53:10;4.97;;;2.35;;
44774;SDS011;31340;51.402;0.016;2023-08-07T04:55:38;3.65;;;2.20;;
44774;SDS011;31340;51.402;0.016;2023-08-07T04:58:05;6.03;;;2.40;;
44774;SDS011;31340;51.402;0.016;2023-08-07T05:00:33;5.80;;;2.50;;
44774;SDS011;31340;51.402;0.016;2023-08-07T05:03:01;2.97;;;2.20;;
44774;SDS011;31340;51.402;0.016;2023-08-07T05:05:29;4.72;;;2.33;;
44774;SDS011;31340;51.402;0.016;2023-08-07T05:07:57;5.93;;;2.05;;
44774;SDS011;31340;51.402;0.016;2023-08-07T05:10:25;5.70;;;2.22;;
44774;SDS011;31340;51.402;0.016;2023-08-07T05:12:53;3.92;;;2.28;;
44774;SDS011;31340;51.402;0.016;2023-08-07T05:15:24;9.45;;;2.45;;
44774;SDS011;31340;51.402;0.016;2023-08-07T05:17:52;6.38;;;2.40;;
44774;SDS011;31340;51.402;0.016;2023-08-07T05:20:20;5.40;;;2.58;;
44774;SDS011;31340;51.402;0.016;2023-08-07T05:22:47;6.28;;;2.45;;
44774;SDS011;31340;51.402;0.016;2023-08-07T05:25:15;5.25;;;2.65;;
44774;SDS011;31340;51.402;0.016;2023-08-07T05:27:44;5.20;;;2.60;;
44774;SDS011;31340;51.402;0.016;2023-08-07T05:30:12;6.45;;;2.85;;
44774;SDS011;31340;51.402;0.016;2023-08-07T05:32:41;3.90;;;2.63;;
44774;SDS011;31340;51.402;0.016;2023-08-07T05:35:09;5.00;;;2.65;;
44774;SDS011;31340;51.402;0.016;2023-08-07T05:37:36;4.85;;;2.78;;
44774;SDS011;31340;51.402;0.016;2023-08-07T05:40:04;4.90;;;2.45;;
44774;SDS011;31340;51.402;0.016;2023-08-07T05:42:33;6.40;;;2.78;;
44774;SDS011;31340;51.402;0.016;2023-08-07T05:45:01;5.25;;;1.98;;
44774;SDS011;31340;51.402;0.016;2023-08-07T05:47:31;5.55;;;2.53;;
44774;SDS011;31340;51.402;0.016;2023-08-07T05:49:59;5.18;;;2.75;;
44774;SDS011;31340;51.402;0.016;2023-08-07T05:52:28;3.92;;;2.55;;
44774;SDS011;31340;51.402;0.016;2023-08-07T05:54:56;7.13;;;3.03;;
44774;SDS011;31340;51.402;0.016;2023-08-07T05:57:24;4.65;;;2.50;;
44774;SDS011;31340;51.402;0.016;2023-08-07T05:59:51;3.05;;;2.47;;
44774;SDS011;31340;51.402;0.016;2023-08-07T06:02:19;7.15;;;2.58;;
44774;SDS011;31340;51.402;0.016;2023-08-07T06:04:47;7.50;;;3.05;;
44774;SDS011;31340;51.402;0.016;2023-08-07T06:07:15;6.45;;;2.80;;
44774;SDS011;31340;51.402;0.016;2023-08-07T06:09:43;5.93;;;2.78;;
44774;SDS011;31340;51.402;0.016;2023-08-07T06:12:11;4.93;;;2.70;;
44774;SDS011;31340;51.402;0.016;2023-08-07T06:14:39;7.90;;;3.63;;
44774;SDS011;31340;51.402;0.016;2023-08-07T06:17:07;6.15;;;2.67;;
44774;SDS011;31340;51.402;0.016;2023-08-07T06:19:34;7.10;;;3.40;;
44774;SDS011;31340;51.402;0.016;2023-08-07T06:22:02;6.30;;;3.17;;
44774;SDS011;31340;51.402;0.016;2023-08-07T06:24:30;7.80;;;3.08;;
44774;SDS011;31340;51.402;0.016;2023-08-07T06:26:58;7.43;;;3.30;;
44774;SDS011;31340;51.402;0.016;2023-08-07T06:29:26;8.15;;;2.85;;
44774;SDS011;31340;51.402;0.016;2023-08-07T06:31:53;9.65;;;3.50;;
44774;SDS011;31340;51.402;0.016;2023-08-07T06:34:22;6.72;;;2.65;;
44774;SDS011;31340;51.402;0.016;2023-08-07T06:36:49;6.05;;;2.70;;
44774;SDS011;31340;51.402;0.016;2023-08-07T06:39:17;9.15;;;2.95;;
44774;SDS011;31340;51.402;0.016;2023-08-07T06:41:45;9.18;;;3.00;;
44774;SDS011;31340;51.402;0.016;2023-08-07T06:44:14;10.68;;;2.72;;
44774;SDS011;31340;51.402;0.016;2023-08-07T06:46:41;4.05;;;2.40;;
44774;SDS011;31340;51.402;0.016;2023-08-07T06:49:09;5.18;;;2.88;;
44774;SDS011;31340;51.402;0.016;2023-08-07T06:51:36;10.82;;;2.60;;
44774;SDS011;31340;51.402;0.016;2023-08-07T06:54:04;5.93;;;2.63;;
44774;SDS011;31340;51.402;0.016;2023-08-07T06:56:31;6.45;;;2.70;;
44774;SDS011;31340;51.402;0.016;2023-08-07T06:58:59;5.03;;;3.05;;
44774;SDS011;31340;51.402;0.016;2023-08-07T07:01:27;4.70;;;2.58;;
44774;SDS011;31340;51.402;0.016;2023-08-07T07:03:56;5.82;;;2.35;;
44774;SDS011;31340;51.402;0.016;2023-08-07T07:06:23;9.35;;;2.53;;
44774;SDS011;31340;51.402;0.016;2023-08-07T07:08:53;5.55;;;2.35;;
44774;SDS011;31340;51.402;0.016;2023-08-07T07:11:23;5.18;;;2.53;;
44774;SDS011;31340;51.402;0.016;2023-08-07T07:13:51;5.68;;;2.47;;
44774;SDS011;31340;51.402;0.016;2023-08-07T07:16:19;4.70;;;2.40;;
44774;SDS011;31340;51.402;0.016;2023-08-07T07:18:49;7.22;;;2.63;;
44774;SDS011;31340;51.402;0.016;2023-08-07T07:21:18;7.38;;;2.38;;
44774;SDS011;31340;51.402;0.016;2023-08-07T07:23:45;6.78;;;2.40;;
44774;SDS011;31340;51.402;0.016;2023-08-07T07:26:13;4.55;;;2.38;;
44774;SDS011;31340;51.402;0.016;2023-08-07T07:28:41;4.63;;;2.10;;
44774;SDS011;31340;51.402;0.016;2023-08-07T07:31:09;7.78;;;2.40;;
44774;SDS011;31340;51.402;0.016;2023-08-07T07:33:39;8.07;;;2.90;;
44774;SDS011;31340;51.402;0.016;2023-08-07T07:36:13;4.15;;;2.20;;
44774;SDS011;31340;51.402;0.016;2023-08-07T07:38:42;6.10;;;2.30;;
44774;SDS011;31340;51.402;0.016;2023-08-07T07:41:13;5.25;;;2.13;;
44774;SDS011;31340;51.402;0.016;2023-08-07T07:43:44;9.48;;;2.67;;
44774;SDS011;31340;51.402;0.016;2023-08-07T07:46:12;7.85;;;2.70;;
44774;SDS011;31340;51.402;0.016;2023-08-07T07:48:39;4.38;;;2.05;;
44774;SDS011;31340;51.402;0.016;2023-08-07T07:51:07;7.55;;;2.35;;
44774;SDS011;31340;51.402;0.016;2023-08-07T07:53:35;5.28;;;2.28;;
44774;SDS011;31340;51.402;0.016;2023-08-07T07:56:03;5.65;;;2.25;;
44774;SDS011;31340;51.402;0.016;2023-08-07T07:58:30;7.07;;;2.17;;
44774;SDS011;31340;51.402;0.016;2023-08-07T08:00:58;5.68;;;2.53;;
44774;SDS011;31340;51.402;0.016;2023-08-07T08:03:25;6.90;;;2.25;;
44774;SDS011;31340;51.402;0.016;2023-08-07T08:05:54;3.78;;;1.85;;
44774;SDS011;31340;51.402;0.016;2023-08-07T08:08:21;7.07;;;2.03;;
44774;SDS011;31340;51.402;0.016;2023-08-07T08:10:49;3.25;;;2.20;;
44774;SDS011;31340;51.402;0.016;2023-08-07T08:13:18;5.13;;;2.00;;
44774;SDS011;31340;51.402;0.016;2023-08-07T08:15:46;5.30;;;2.25;;
44774;SDS011;31340;51.402;0.016;2023-08-07T08:18:13;8.75;;;2.35;;
44774;SDS011;31340;51.402;0.016;2023-08-07T08:20:41;4.63;;;2.50;;
44774;SDS011;31340;51.402;0.016;2023-08-07T08:23:09;4.47;;;2.00;;
44774;SDS011;31340;51.402;0.016;2023-08-07T08:25:37;5.03;;;1.98;;
44774;SDS011;31340;51.402;0.016;2023-08-07T08:28:05;3.00;;;2.33;;
44774;SDS011;31340;51.402;0.016;2023-08-07T08:30:32;3.33;;;1.50;;
44774;SDS011;31340;51.402;0.016;2023-08-07T08:33:00;6.10;;;1.98;;
44774;SDS011;31340;51.402;0.016;2023-08-07T08:38:13;2.50;;;1.67;;
44774;SDS011;31340;51.402;0.016;2023-08-07T08:40:41;3.28;;;1.73;;
44774;SDS011;31340;51.402;0.016;2023-08-07T08:43:08;6.07;;;1.60;;
44774;SDS011;31340;51.402;0.016;2023-08-07T08:45:39;4.38;;;1.50;;
44774;SDS011;31340;51.402;0.016;2023-08-07T08:48:08;4.97;;;2.17;;
44774;SDS011;31340;51.402;0.016;2023-08-07T08:50:45;4.60;;;1.80;;
44774;SDS011;31340;51.402;0.016;2023-08-07T08:53:12;3.03;;;1.70;;
44774;SDS011;31340;51.402;0.016;2023-08-07T08:55:41;4.20;;;1.67;;
44774;SDS011;31340;51.402;0.016;2023-08-07T08:58:13;4.70;;;1.65;;
44774;SDS011;31340;51.402;0.016;2023-08-07T09:00:43;5.65;;;1.92;;
44774;SDS011;31340;51.402;0.016;2023-08-07T09:03:12;13.07;;;2.50;;
44774;SDS011;31340;51.402;0.016;2023-08-07T09:05:41;5.43;;;1.55;;
44774;SDS011;31340;51.402;0.016;2023-08-07T09:08:09;4.43;;;1.67;;
44774;SDS011;31340;51.402;0.016;2023-08-07T09:27:22;3.53;;;1.15;;
44774;SDS011;31340;51.402;0.016;2023-08-07T09:29:50;6.18;;;1.38;;
44774;SDS011;31340;51.402;0.016;2023-08-07T09:32:19;3.67;;;1.20;;
44774;SDS011;31340;51.402;0.016;2023-08-07T09:34:49;4.38;;;1.40;;
44774;SDS011;31340;51.402;0.016;2023-08-07T09:37:19;2.45;;;1.30;;
44774;SDS011;31340;51.402;0.016;2023-08-07T09:39:46;4.38;;;1.35;;
44774;SDS011;31340;51.402;0.016;2023-08-07T09:42:15;4.75;;;1.65;;
44774;SDS011;31340;51.402;0.016;2023-08-07T09:44:43;4.15;;;1.45;;
44774;SDS011;31340;51.402;0.016;2023-08-07T09:47:16;1.70;;;1.10;;
44774;SDS011;31340;51.402;0.016;2023-08-07T09:49:45;3.53;;;1.30;;
44774;SDS011;31340;51.402;0.016;2023-08-07T09:52:13;2.85;;;1.30;;
44774;SDS011;31340;51.402;0.016;2023-08-07T09:54:42;4.22;;;1.35;;
44774;SDS011;31340;51.402;0.016;2023-08-07T09:57:10;3.42;;;1.27;;
44774;SDS011;31340;51.402;0.016;2023-08-07T09:59:37;4.55;;;1.08;;
44774;SDS011;31340;51.402;0.016;2023-08-07T10:02:05;3.13;;;1.20;;
44774;SDS011;31340;51.402;0.016;2023-08-07T10:04:34;3.88;;;1.30;;
44774;SDS011;31340;51.402;0.016;2023-08-07T10:07:02;2.50;;;1.20;;
44774;SDS011;31340;51.402;0.016;2023-08-07T10:09:30;4.45;;;1.20;;
44774;SDS011;31340;51.402;0.016;2023-08-07T10:11:59;3.03;;;1.05;;
44774;SDS011;31340;51.402;0.016;2023-08-07T10:14:27;5.30;;;1.20;;
44774;SDS011;31340;51.402;0.016;2023-08-07T10:16:56;3.63;;;1.25;;
44774;SDS011;31340;51.402;0.016;2023-08-07T10:19:25;3.95;;;1.67;;
44774;SDS011;31340;51.402;0.016;2023-08-07T10:21:53;2.45;;;1.25;;
44774;SDS011;31340;51.402;0.016;2023-08-07T10:24:21;5.22;;;1.40;;
44774;SDS011;31340;51.402;0.016;2023-08-07T10:26:50;3.88;;;1.45;;
44774;SDS011;31340;51.402;0.016;2023-08-07T10:29:19;4.13;;;1.15;;
44774;SDS011;31340;51.402;0.016;2023-08-07T10:31:51;1.90;;;1.00;;
44774;SDS011;31340;51.402;0.016;2023-08-07T10:34:21;3.38;;;1.27;;
44774;SDS011;31340;51.402;0.016;2023-08-07T10:36:49;1.65;;;1.00;;
44774;SDS011;31340;51.402;0.016;2023-08-07T10:39:17;4.00;;;0.98;;
44774;SDS011;31340;51.402;0.016;2023-08-07T10:41:45;3.13;;;1.33;;
44774;SDS011;31340;51.402;0.016;2023-08-07T10:44:17;2.72;;;1.20;;
44774;SDS011;31340;51.402;0.016;2023-08-07T10:46:53;3.80;;;1.38;;
44774;SDS011;31340;51.402;0.016;2023-08-07T10:49:32;4.32;;;1.58;;
44774;SDS011;31340;51.402;0.016;2023-08-07T10:54:39;2.90;;;1.23;;
44774;SDS011;31340;51.402;0.016;2023-08-07T10:57:17;3.63;;;1.42;;
44774;SDS011;31340;51.402;0.016;2023-08-07T10:59:49;5.75;;;1.45;;
44774;SDS011;31340;51.402;0.016;2023-08-07T11:02:23;2.15;;;1.23;;
44774;SDS011;31340;51.402;0.016;2023-08-07T11:04:55;4.00;;;0.93;;
44774;SDS011;31340;51.402;0.016;2023-08-07T11:07:28;2.92;;;1.48;;
44774;SDS011;31340;51.402;0.016;2023-08-07T11:09:57;2.65;;;1.20;;
44774;SDS011;31340;51.402;0.016;2023-08-07T11:12:26;5.18;;;1.45;;
44774;SDS011;31340;51.402;0.016;2023-08-07T11:14:55;3.17;;;1.23;;
44774;SDS011;31340;51.402;0.016;2023-08-07T11:17:27;3.35;;;1.20;;
44774;SDS011;31340;51.402;0.016;2023-08-07T11:19:56;3.40;;;1.13;;
44774;SDS011;31340;51.402;0.016;2023-08-07T11:22:24;3.67;;;1.20;;
44774;SDS011;31340;51.402;0.016;2023-08-07T11:24:51;7.30;;;1.50;;
44774;SDS011;31340;51.402;0.016;2023-08-07T11:27:23;2.28;;;1.20;;
44774;SDS011;31340;51.402;0.016;2023-08-07T11:29:50;2.15;;;1.20;;
44774;SDS011;31340;51.402;0.016;2023-08-07T11:32:18;4.00;;;1.23;;
44774;SDS011;31340;51.402;0.016;2023-08-07T11:34:51;3.08;;;1.30;;
44774;SDS011;31340;51.402;0.016;2023-08-07T11:37:19;2.75;;;1.20;;
44774;SDS011;31340;51.402;0.016;2023-08-07T11:39:48;2.13;;;1.25;;
44774;SDS011;31340;51.402;0.016;2023-08-07T11:42:15;1.77;;;1.00;;
44774;SDS011;31340;51.402;0.016;2023-08-07T11:44:43;3.05;;;1.20;;
44774;SDS011;31340;51.402;0.016;2023-08-07T11:47:12;4.60;;;1.60;;
44774;SDS011;31340;51.402;0.016;2023-08-07T11:49:42;5.00;;;1.50;;
44774;SDS011;31340;51.402;0.016;2023-08-07T11:52:10;2.75;;;1.08;;
44774;SDS011;31340;51.402;0.016;2023-08-07T11:54:37;3.78;;;1.10;;
44774;SDS011;31340;51.402;0.016;2023-08-07T11:57:15;2.53;;;1.10;;
44774;SDS011;31340;51.402;0.016;2023-08-07T11:59:46;2.15;;;1.13;;
44774;SDS011;31340;51.402;0.016;2023-08-07T12:02:15;3.03;;;1.10;;
44774;SDS011;31340;51.402;0.016;2023-08-07T12:04:43;7.95;;;1.65;;
44774;SDS011;31340;51.402;0.016;2023-08-07T12:07:11;2.53;;;1.15;;
44774;SDS011;31340;51.402;0.016;2023-08-07T12:09:44;4.57;;;1.30;;
44774;SDS011;31340;51.402;0.016;2023-08-07T12:12:11;4.28;;;1.25;;
44774;SDS011;31340;51.402;0.016;2023-08-07T12:14:39;3.10;;;1.23;;
44774;SDS011;31340;51.402;0.016;2023-08-07T12:17:08;2.47;;;1.40;;
44774;SDS011;31340;51.402;0.016;2023-08-07T12:19:37;2.90;;;1.00;;
44774;SDS011;31340;51.402;0.016;2023-08-07T12:22:06;2.88;;;1.40;;
44774;SDS011;31340;51.402;0.016;2023-08-07T12:24:35;2.73;;;1.40;;
44774;SDS011;31340;51.402;0.016;2023-08-07T12:27:04;3.15;;;1.50;;
44774;SDS011;31340;51.402;0.016;2023-08-07T12:29:32;3.40;;;1.13;;
44774;SDS011;31340;51.402;0.016;2023-08-07T12:31:59;4.13;;;1.45;;
44774;SDS011;31340;51.402;0.016;2023-08-07T12:34:30;3.75;;;1.60;;
44774;SDS011;31340;51.402;0.016;2023-08-07T12:37:00;2.35;;;1.27;;
44774;SDS011;31340;51.402;0.016;2023-08-07T12:39:28;2.67;;;1.20;;
44774;SDS011;31340;51.402;0.016;2023-08-07T12:41:58;2.85;;;1.30;;
44774;SDS011;31340;51.402;0.016;2023-08-07T12:44:31;2.58;;;1.35;;
44774;SDS011;31340;51.402;0.016;2023-08-07T12:46:59;4.13;;;1.40;;
44774;SDS011;31340;51.402;0.016;2023-08-07T12:49:27;3.28;;;1.17;;
44774;SDS011;31340;51.402;0.016;2023-08-07T12:51:54;3.83;;;1.77;;
44774;SDS011;31340;51.402;0.016;2023-08-07T12:54:24;3.90;;;1.73;;
44774;SDS011;31340;51.402;0.016;2023-08-07T12:56:52;2.53;;;1.40;;
44774;SDS011;31340;51.402;0.016;2023-08-07T12:59:22;4.93;;;1.50;;
44774;SDS011;31340;51.402;0.016;2023-08-07T13:01:50;4.07;;;1.50;;
44774;SDS011;31340;51.402;0.016;2023-08-07T13:04:20;2.25;;;1.30;;
44774;SDS011;31340;51.402;0.016;2023-08-07T13:06:47;3.88;;;1.40;;
44774;SDS011;31340;51.402;0.016;2023-08-07T13:09:16;2.95;;;1.27;;
44774;SDS011;31340;51.402;0.016;2023-08-07T13:11:44;3.60;;;1.48;;
44774;SDS011;31340;51.402;0.016;2023-08-07T13:14:11;3.17;;;1.50;;
44774;SDS011;31340;51.402;0.016;2023-08-07T13:16:39;1.75;;;1.17;;
44774;SDS011;31340;51.402;0.016;2023-08-07T13:19:08;2.47;;;1.47;;
44774;SDS011;31340;51.402;0.016;2023-08-07T13:21:36;4.43;;;1.45;;
44774;SDS011;31340;51.402;0.016;2023-08-07T13:24:03;1.95;;;1.10;;
44774;SDS011;31340;51.402;0.016;2023-08-07T13:26:32;3.53;;;1.33;;
44774;SDS011;31340;51.402;0.016;2023-08-07T13:28:59;3.85;;;1.55;;
44774;SDS011;31340;51.402;0.016;2023-08-07T13:31:27;3.42;;;1.52;;
44774;SDS011;31340;51.402;0.016;2023-08-07T13:33:55;2.15;;;1.50;;
44774;SDS011;31340;51.402;0.016;2023-08-07T13:36:23;3.15;;;1.45;;
44774;SDS011;31340;51.402;0.016;2023-08-07T13:38:50;4.93;;;1.33;;
44774;SDS011;31340;51.402;0.016;2023-08-07T13:41:18;2.63;;;1.27;;
44774;SDS011;31340;51.402;0.016;2023-08-07T13:43:46;2.20;;;1.23;;
44774;SDS011;31340;51.402;0.016;2023-08-07T13:46:13;4.78;;;1.60;;
44774;SDS011;31340;51.402;0.016;2023-08-07T13:48:41;1.77;;;1.35;;
44774;SDS011;31340;51.402;0.016;2023-08-07T13:51:08;3.33;;;1.38;;
44774;SDS011;31340;51.402;0.016;2023-08-07T13:53:36;3.63;;;1.30;;
44774;SDS011;31340;51.402;0.016;2023-08-07T13:56:04;3.55;;;1.55;;
44774;SDS011;31340;51.402;0.016;2023-08-07T13:58:32;3.25;;;1.58;;
44774;SDS011;31340;51.402;0.016;2023-08-07T14:00:59;2.83;;;1.38;;
44774;SDS011;31340;51.402;0.016;2023-08-07T14:03:27;1.98;;;1.05;;
44774;SDS011;31340;51.402;0.016;2023-08-07T14:05:54;3.00;;;1.60;;
44774;SDS011;31340;51.402;0.016;2023-08-07T14:08:22;1.88;;;1.27;;
44774;SDS011;31340;51.402;0.016;2023-08-07T14:10:50;3.28;;;1.50;;
44774;SDS011;31340;51.402;0.016;2023-08-07T14:13:17;2.85;;;1.30;;
44774;SDS011;31340;51.402;0.016;2023-08-07T14:18:16;2.47;;;1.30;;
44774;SDS011;31340;51.402;0.016;2023-08-07T14:20:43;2.72;;;1.42;;
44774;SDS011;31340;51.402;0.016;2023-08-07T14:23:29;3.30;;;1.20;;
44774;SDS011;31340;51.402;0.016;2023-08-07T14:26:00;3.67;;;1.50;;
44774;SDS011;31340;51.402;0.016;2023-08-07T14:28:28;2.53;;;1.35;;
44774;SDS011;31340;51.402;0.016;2023-08-07T14:30:59;2.50;;;1.20;;
44774;SDS011;31340;51.402;0.016;2023-08-07T14:33:28;3.13;;;1.60;;
44774;SDS011;31340;51.402;0.016;2023-08-07T14:35:56;3.60;;;1.60;;
44774;SDS011;31340;51.402;0.016;2023-08-07T14:38:24;3.13;;;1.20;;
44774;SDS011;31340;51.402;0.016;2023-08-07T14:40:51;2.95;;;1.20;;
44774;SDS011;31340;51.402;0.016;2023-08-07T14:43:19;4.40;;;1.40;;
44774;SDS011;31340;51.402;0.016;2023-08-07T14:45:47;3.22;;;1.40;;
44774;SDS011;31340;51.402;0.016;2023-08-07T14:48:15;2.50;;;1.17;;
44774;SDS011;31340;51.402;0.016;2023-08-07T14:50:43;2.85;;;1.20;;
44774;SDS011;31340;51.402;0.016;2023-08-07T14:53:11;1.98;;;1.10;;
44774;SDS011;31340;51.402;0.016;2023-08-07T14:55:39;4.07;;;1.73;;
44774;SDS011;31340;51.402;0.016;2023-08-07T14:58:06;2.83;;;1.55;;
44774;SDS011;31340;51.402;0.016;2023-08-07T15:00:37;1.35;;;1.10;;
44774;SDS011;31340;51.402;0.016;2023-08-07T15:03:05;3.88;;;1.42;;
44774;SDS011;31340;51.402;0.016;2023-08-07T15:05:33;3.03;;;1.33;;
44774;SDS011;31340;51.402;0.016;2023-08-07T15:08:01;2.50;;;1.30;;
44774;SDS011;31340;51.402;0.016;2023-08-07T15:10:29;3.33;;;1.30;;
44774;SDS011;31340;51.402;0.016;2023-08-07T15:12:56;4.05;;;2.08;;
44774;SDS011;31340;51.402;0.016;2023-08-07T15:15:25;6.25;;;1.45;;
44774;SDS011;31340;51.402;0.016;2023-08-07T15:17:53;3.40;;;1.45;;
44774;SDS011;31340;51.402;0.016;2023-08-07T15:20:21;3.03;;;1.48;;
44774;SDS011;31340;51.402;0.016;2023-08-07T15:22:49;4.78;;;1.30;;
44774;SDS011;31340;51.402;0.016;2023-08-07T15:25:17;3.58;;;1.15;;
44774;SDS011;31340;51.402;0.016;2023-08-07T15:27:45;2.05;;;1.38;;